Time;durP1;ratioP1;P1;durP2;ratioP2;P2;SDS_P1;SDS_P2;PMS_P1;PMS_P2;Temp;Humidity;BMP_temperature;BMP_pressure;BME280_temperature;BME280_humidity;BME280_pressure;Samples;Min_cycle;Max_cycle;Signal;HPM_P1;HPM_P2
2023/11/28 00:02:19;;;;;;;7.13;2.55;;;3.60;99.90;;;;;;6208168;23;20008;-77
2023/11/28 00:04:45;;;;;;;4.53;2.58;;;3.60;99.90;;;;;;6208975;23;20086;-78
2023/11/28 00:07:11;;;;;;;4.82;3.08;;;3.70;99.90;;;;;;6210343;23;20012;-76
2023/11/28 00:09:37;;;;;;;4.32;2.53;;;3.60;99.90;;;;;;6211100;23;20013;-76
2023/11/28 00:12:02;;;;;;;4.68;2.60;;;3.60;99.90;;;;;;6209534;23;20005;-78
2023/11/28 00:14:28;;;;;;;4.13;2.30;;;3.70;99.90;;;;;;6208389;23;20062;-76
2023/11/28 00:16:54;;;;;;;4.07;2.40;;;3.60;99.90;;;;;;6210376;23;20011;-77
2023/11/28 00:19:19;;;;;;;3.90;2.42;;;3.60;99.90;;;;;;6206869;23;20005;-78
2023/11/28 00:21:45;;;;;;;4.45;2.67;;;3.60;99.90;;;;;;6208459;23;20028;-76
2023/11/28 00:24:11;;;;;;;5.45;3.05;;;3.70;99.90;;;;;;6208700;23;20015;-77
2023/11/28 00:26:36;;;;;;;5.43;2.97;;;3.70;99.90;;;;;;6209277;23;20019;-76
2023/11/28 00:29:02;;;;;;;5.03;3.00;;;3.70;99.90;;;;;;6209213;23;20028;-76
2023/11/28 00:31:28;;;;;;;4.95;3.03;;;3.70;99.90;;;;;;6210414;23;20019;-76
2023/11/28 00:33:54;;;;;;;4.63;2.92;;;3.60;99.90;;;;;;6208965;23;20013;-77
2023/11/28 00:36:20;;;;;;;5.13;3.10;;;3.60;99.90;;;;;;6209037;23;20027;-79
2023/11/28 00:38:46;;;;;;;7.90;2.50;;;3.60;99.90;;;;;;6210587;23;20079;-77
2023/11/28 00:41:12;;;;;;;5.35;2.67;;;3.60;99.90;;;;;;6207140;23;20016;-76
2023/11/28 00:43:38;;;;;;;5.53;2.90;;;3.60;99.90;;;;;;6208070;23;20032;-76
2023/11/28 00:46:03;;;;;;;4.03;2.50;;;3.50;99.90;;;;;;6207169;23;20016;-78
2023/11/28 00:48:29;;;;;;;3.63;2.33;;;3.50;99.90;;;;;;6210785;23;20001;-76
2023/11/28 00:50:55;;;;;;;4.18;2.10;;;3.50;99.90;;;;;;6209672;23;20478;-78
2023/11/28 00:53:20;;;;;;;3.78;2.35;;;3.50;99.90;;;;;;6207567;23;20012;-77
2023/11/28 00:55:46;;;;;;;5.70;2.60;;;3.40;99.90;;;;;;6210362;23;20024;-77
2023/11/28 00:58:12;;;;;;;3.05;1.92;;;3.50;99.90;;;;;;6209058;23;20001;-77
2023/11/28 01:00:37;;;;;;;3.25;2.17;;;3.40;99.90;;;;;;6209998;23;20040;-76
2023/11/28 01:03:03;;;;;;;4.00;2.30;;;3.40;99.90;;;;;;6207392;23;20005;-78
2023/11/28 01:05:29;;;;;;;5.43;2.15;;;3.30;99.90;;;;;;6210359;23;20013;-77
2023/11/28 01:07:56;;;;;;;3.83;1.92;;;3.30;99.90;;;;;;6207916;23;20005;-76
2023/11/28 01:10:21;;;;;;;4.90;2.53;;;3.30;99.90;;;;;;6209162;23;20375;-76
2023/11/28 01:12:47;;;;;;;4.50;2.45;;;3.30;99.90;;;;;;6207856;23;20094;-77
2023/11/28 01:15:13;;;;;;;3.58;1.92;;;3.30;99.90;;;;;;6208778;23;20001;-77
2023/11/28 01:17:38;;;;;;;3.60;2.00;;;3.30;99.90;;;;;;6209568;23;20001;-77
2023/11/28 01:20:05;;;;;;;4.18;2.22;;;3.30;99.90;;;;;;6208652;23;20001;-76
2023/11/28 01:22:30;;;;;;;3.00;1.75;;;3.30;99.90;;;;;;6208383;23;20013;-77
2023/11/28 01:24:56;;;;;;;4.57;2.47;;;3.30;99.90;;;;;;6210499;23;20110;-76
2023/11/28 01:27:22;;;;;;;4.82;2.30;;;3.20;99.90;;;;;;6208849;23;20024;-76
2023/11/28 01:29:47;;;;;;;2.95;2.08;;;3.30;99.90;;;;;;6209909;23;20009;-77
2023/11/28 01:32:13;;;;;;;4.93;2.92;;;3.30;99.90;;;;;;6207426;23;20031;-78
2023/11/28 01:34:38;;;;;;;4.97;2.30;;;3.20;99.90;;;;;;6210092;23;20059;-77
2023/11/28 01:37:04;;;;;;;3.67;2.40;;;3.30;99.90;;;;;;6209409;23;20092;-75
2023/11/28 01:39:30;;;;;;;4.07;2.05;;;3.30;99.90;;;;;;6209855;23;20005;-77
2023/11/28 01:41:55;;;;;;;5.78;2.63;;;3.20;99.90;;;;;;6212683;23;20071;-77
2023/11/28 01:44:21;;;;;;;11.98;2.67;;;3.20;99.90;;;;;;6211052;23;20027;-77
2023/11/28 01:46:47;;;;;;;3.78;2.20;;;3.30;99.90;;;;;;6211115;23;20013;-76
2023/11/28 01:49:13;;;;;;;4.28;1.80;;;3.20;99.90;;;;;;6209254;23;20058;-78
2023/11/28 01:51:39;;;;;;;5.70;2.45;;;3.20;99.90;;;;;;6210968;23;20155;-77
2023/11/28 01:54:06;;;;;;;3.72;2.08;;;3.20;99.90;;;;;;6211300;23;20066;-78
2023/11/28 01:56:35;;;;;;;6.85;1.85;;;3.20;99.90;;;;;;6212291;23;20442;-77
2023/11/28 01:59:02;;;;;;;4.20;2.05;;;3.20;99.90;;;;;;6210893;23;20001;-77
2023/11/28 02:01:28;;;;;;;2.17;1.65;;;3.20;99.90;;;;;;6212007;23;20028;-77
2023/11/28 02:03:53;;;;;;;3.22;1.92;;;3.20;99.90;;;;;;6211497;23;20019;-77
2023/11/28 02:06:19;;;;;;;9.05;3.03;;;3.20;99.90;;;;;;6209183;23;20105;-77
2023/11/28 02:08:45;;;;;;;3.50;2.20;;;3.20;99.90;;;;;;6212327;23;20427;-76
2023/11/28 02:11:11;;;;;;;3.25;1.88;;;3.20;99.90;;;;;;6208705;23;20004;-79
2023/11/28 02:13:37;;;;;;;4.47;2.30;;;3.20;99.90;;;;;;6211737;23;20032;-76
2023/11/28 02:16:14;;;;;;;3.60;1.83;;;3.20;99.90;;;;;;6209015;23;20067;-77
2023/11/28 02:18:40;;;;;;;3.90;1.90;;;3.30;99.90;;;;;;6209529;23;20013;-77
2023/11/28 02:21:09;;;;;;;3.72;2.15;;;3.20;99.90;;;;;;6208389;23;20358;-77
2023/11/28 02:23:34;;;;;;;5.15;1.85;;;3.20;99.90;;;;;;6209348;23;20013;-76
2023/11/28 02:26:07;;;;;;;3.97;1.88;;;3.10;99.90;;;;;;6210249;23;20047;-77
2023/11/28 02:28:32;;;;;;;3.40;1.50;;;3.20;99.90;;;;;;6211522;23;20139;-76
2023/11/28 02:30:59;;;;;;;3.58;1.80;;;3.10;99.90;;;;;;6212266;23;20032;-77
2023/11/28 02:33:25;;;;;;;3.30;1.80;;;3.10;99.90;;;;;;6208902;23;20135;-76
2023/11/28 02:35:51;;;;;;;3.42;1.88;;;3.10;99.90;;;;;;6212054;23;20025;-78
2023/11/28 02:38:17;;;;;;;3.70;1.70;;;3.00;99.90;;;;;;6208817;23;20066;-77
2023/11/28 02:40:42;;;;;;;2.85;1.35;;;3.00;99.90;;;;;;6209583;23;20043;-78
2023/11/28 02:43:08;;;;;;;3.20;1.33;;;3.00;99.90;;;;;;6210218;23;20005;-78
2023/11/28 02:45:35;;;;;;;3.90;1.83;;;2.90;99.90;;;;;;6211696;23;20055;-77
2023/11/28 02:48:00;;;;;;;2.65;1.52;;;2.90;99.90;;;;;;6208550;23;20005;-77
2023/11/28 02:50:26;;;;;;;2.90;1.52;;;2.90;99.90;;;;;;6208928;23;20012;-77
2023/11/28 02:52:51;;;;;;;2.28;1.17;;;2.90;99.90;;;;;;6211982;23;20008;-77
2023/11/28 02:55:17;;;;;;;3.28;1.63;;;2.90;99.90;;;;;;6208593;23;20012;-77
2023/11/28 02:57:44;;;;;;;2.85;1.05;;;2.90;99.90;;;;;;6209189;23;20004;-77
2023/11/28 03:00:10;;;;;;;2.20;1.15;;;2.90;99.90;;;;;;6209778;23;20434;-77
2023/11/28 03:02:36;;;;;;;2.00;1.10;;;2.80;99.90;;;;;;6211198;23;20427;-77
2023/11/28 03:05:03;;;;;;;1.65;0.90;;;2.80;99.90;;;;;;6208052;23;20013;-76
2023/11/28 03:07:28;;;;;;;2.53;0.98;;;2.70;99.90;;;;;;6210994;23;20009;-78
2023/11/28 03:09:54;;;;;;;1.92;1.10;;;2.70;99.90;;;;;;6211097;23;20024;-76
2023/11/28 03:12:20;;;;;;;1.95;1.10;;;2.70;99.90;;;;;;6210452;23;20019;-77
2023/11/28 03:14:45;;;;;;;2.90;1.00;;;2.60;99.90;;;;;;6209238;23;20439;-77
2023/11/28 03:17:11;;;;;;;3.28;1.00;;;2.50;99.90;;;;;;6209930;23;20004;-77
2023/11/28 03:19:36;;;;;;;2.30;0.98;;;2.50;99.90;;;;;;6210792;23;20008;-77
2023/11/28 03:22:02;;;;;;;1.33;0.93;;;2.40;99.90;;;;;;6209575;23;20039;-76
2023/11/28 03:24:28;;;;;;;4.40;1.42;;;2.30;99.90;;;;;;6210817;23;20012;-77
2023/11/28 03:26:54;;;;;;;2.60;0.65;;;2.30;99.90;;;;;;6209416;23;20023;-78
2023/11/28 03:29:20;;;;;;;2.70;1.05;;;2.30;99.90;;;;;;6210465;23;20012;-77
2023/11/28 03:31:46;;;;;;;1.58;0.77;;;2.20;99.90;;;;;;6209368;23;20012;-77
2023/11/28 03:34:12;;;;;;;2.10;0.70;;;2.20;99.90;;;;;;6207376;23;20374;-77
2023/11/28 03:36:38;;;;;;;1.38;0.68;;;2.20;99.90;;;;;;6210284;23;20012;-78
2023/11/28 03:39:03;;;;;;;1.95;0.90;;;2.20;99.90;;;;;;6209545;23;20013;-77
2023/11/28 03:41:29;;;;;;;0.30;0.30;;;2.20;99.90;;;;;;6211894;23;20012;-77
2023/11/28 03:43:55;;;;;;;3.92;0.93;;;2.10;99.90;;;;;;6210144;23;20374;-77
2023/11/28 03:46:20;;;;;;;1.45;0.40;;;2.00;99.90;;;;;;6207640;23;20004;-77
2023/11/28 03:48:46;;;;;;;0.85;0.60;;;2.00;99.90;;;;;;6208804;23;20012;-77
2023/11/28 03:51:11;;;;;;;1.17;0.60;;;2.00;99.90;;;;;;6207695;23;20066;-77
2023/11/28 03:53:37;;;;;;;2.92;0.70;;;2.00;99.90;;;;;;6210892;23;20355;-77
2023/11/28 03:56:07;;;;;;;1.63;0.63;;;1.90;99.90;;;;;;6208496;23;20350;-77
2023/11/28 03:58:33;;;;;;;0.82;0.47;;;1.90;99.90;;;;;;6214286;23;20055;-76
2023/11/28 04:00:58;;;;;;;3.42;0.50;;;1.90;99.90;;;;;;6213829;23;20016;-77
2023/11/28 04:03:24;;;;;;;0.70;0.47;;;1.90;99.90;;;;;;6207513;23;20009;-77
2023/11/28 04:05:49;;;;;;;2.42;0.50;;;1.90;99.90;;;;;;6208772;23;20013;-76
2023/11/28 04:08:15;;;;;;;0.70;0.38;;;1.80;99.90;;;;;;6208261;23;20035;-76
2023/11/28 04:10:41;;;;;;;2.10;0.50;;;1.80;99.90;;;;;;6210972;23;20005;-77
2023/11/28 04:13:07;;;;;;;4.00;0.30;;;1.80;99.90;;;;;;6207150;23;20084;-76
2023/11/28 04:15:33;;;;;;;0.98;0.50;;;1.80;99.90;;;;;;6209142;23;20005;-76
2023/11/28 04:18:00;;;;;;;0.77;0.40;;;1.70;99.90;;;;;;6210462;23;20009;-77
2023/11/28 04:20:26;;;;;;;1.52;0.40;;;1.80;99.90;;;;;;6209732;23;20007;-77
2023/11/28 04:22:52;;;;;;;1.38;0.52;;;1.80;99.90;;;;;;6209887;23;20008;-76
2023/11/28 04:25:17;;;;;;;1.10;0.35;;;1.70;99.90;;;;;;6206911;23;20402;-77
2023/11/28 04:27:43;;;;;;;0.73;0.13;;;1.70;99.90;;;;;;6209767;23;20442;-76
2023/11/28 04:30:10;;;;;;;1.55;0.38;;;1.70;99.90;;;;;;6208526;23;20489;-78
2023/11/28 04:32:35;;;;;;;2.17;0.30;;;1.70;99.90;;;;;;6210475;23;20018;-76
2023/11/28 04:35:01;;;;;;;1.10;0.38;;;1.70;99.90;;;;;;6206900;23;20319;-76
2023/11/28 04:37:27;;;;;;;0.38;0.20;;;1.70;99.90;;;;;;6208180;23;20118;-77
2023/11/28 04:39:52;;;;;;;1.35;0.43;;;1.70;99.90;;;;;;6210781;23;20036;-77
2023/11/28 04:42:18;;;;;;;0.85;0.30;;;1.60;99.90;;;;;;6209265;23;20091;-76
2023/11/28 04:44:43;;;;;;;0.82;0.45;;;1.60;99.90;;;;;;6210182;23;20012;-77
2023/11/28 04:47:09;;;;;;;1.50;0.75;;;1.60;99.90;;;;;;6211442;23;20012;-76
2023/11/28 04:49:34;;;;;;;1.98;0.50;;;1.50;99.90;;;;;;6214066;23;20442;-77
2023/11/28 04:52:00;;;;;;;1.10;0.38;;;1.60;99.90;;;;;;6210228;23;20342;-77
2023/11/28 04:54:26;;;;;;;1.45;0.45;;;1.60;99.90;;;;;;6209888;23;20066;-77
2023/11/28 04:56:51;;;;;;;8.20;1.55;;;1.60;99.90;;;;;;6209902;23;20008;-76
2023/11/28 04:59:17;;;;;;;1.48;0.52;;;1.50;99.90;;;;;;6208654;23;20488;-77
2023/11/28 05:01:44;;;;;;;2.03;0.22;;;1.60;99.90;;;;;;6210261;23;20004;-76
2023/11/28 05:04:09;;;;;;;1.02;0.28;;;1.60;99.90;;;;;;6208403;23;20414;-77
2023/11/28 05:06:35;;;;;;;1.15;0.50;;;1.60;99.90;;;;;;6208450;23;20012;-76
2023/11/28 05:09:00;;;;;;;0.75;0.30;;;1.70;99.90;;;;;;6207447;23;20023;-76
2023/11/28 05:11:26;;;;;;;1.00;0.30;;;1.70;99.90;;;;;;6208452;23;20009;-77
2023/11/28 05:13:51;;;;;;;2.00;0.60;;;1.70;99.90;;;;;;6209880;23;20009;-77
2023/11/28 05:16:17;;;;;;;1.25;0.30;;;1.60;99.90;;;;;;6209059;23;20124;-76
2023/11/28 05:18:43;;;;;;;1.17;0.30;;;1.60;99.90;;;;;;6209913;23;20005;-77
2023/11/28 05:21:08;;;;;;;0.82;0.60;;;1.60;99.90;;;;;;6208935;23;20421;-76
2023/11/28 05:23:34;;;;;;;0.80;0.30;;;1.60;99.90;;;;;;6207682;23;20039;-77
2023/11/28 05:26:00;;;;;;;0.85;0.30;;;1.70;99.90;;;;;;6208329;23;20447;-77
2023/11/28 05:28:26;;;;;;;2.00;0.40;;;1.80;99.90;;;;;;6207607;23;20032;-77
2023/11/28 05:30:51;;;;;;;2.20;0.45;;;1.70;99.90;;;;;;6210517;23;20027;-78
2023/11/28 05:33:17;;;;;;;4.55;1.25;;;1.80;99.90;;;;;;6206957;23;20005;-76
2023/11/28 05:35:42;;;;;;;0.80;0.30;;;1.80;99.90;;;;;;6207636;23;20008;-76
2023/11/28 05:38:08;;;;;;;0.32;0.20;;;1.70;99.90;;;;;;6206339;23;20009;-75
2023/11/28 05:40:34;;;;;;;2.78;0.20;;;1.80;99.90;;;;;;6210730;23;20005;-77
2023/11/28 05:43:00;;;;;;;0.43;0.25;;;1.80;99.90;;;;;;6209687;23;20015;-76
2023/11/28 05:45:25;;;;;;;0.45;0.22;;;1.80;99.90;;;;;;6202882;23;20037;-77
2023/11/28 05:47:52;;;;;;;0.75;0.30;;;1.80;99.90;;;;;;6206288;23;20013;-76
2023/11/28 05:50:17;;;;;;;0.45;0.35;;;1.90;99.90;;;;;;6205519;23;20083;-77
2023/11/28 05:52:43;;;;;;;1.30;0.68;;;1.80;99.90;;;;;;6208616;23;20374;-75
2023/11/28 05:55:09;;;;;;;3.78;1.08;;;1.80;99.90;;;;;;6205675;23;20040;-74
2023/11/28 05:57:34;;;;;;;0.40;0.13;;;1.80;99.90;;;;;;6204736;23;20037;-76
2023/11/28 06:00:00;;;;;;;1.25;0.15;;;1.70;99.90;;;;;;6206828;23;20004;-76
2023/11/28 06:02:25;;;;;;;0.60;0.30;;;1.70;99.90;;;;;;6206509;23;20086;-77
2023/11/28 06:04:51;;;;;;;2.17;0.50;;;1.60;99.90;;;;;;6205974;23;20012;-77
2023/11/28 06:07:17;;;;;;;1.42;0.47;;;1.70;99.90;;;;;;6202803;23;20324;-76
2023/11/28 06:09:42;;;;;;;1.00;0.32;;;1.70;99.90;;;;;;6204754;23;20013;-77
2023/11/28 06:12:08;;;;;;;0.82;0.20;;;1.70;99.90;;;;;;6203404;23;20390;-76
2023/11/28 06:14:35;;;;;;;1.33;0.50;;;1.80;99.90;;;;;;6204077;23;20004;-77
2023/11/28 06:17:01;;;;;;;0.40;0.30;;;1.70;99.90;;;;;;6203616;23;20741;-76
2023/11/28 06:19:27;;;;;;;1.35;0.47;;;1.80;99.90;;;;;;6206777;23;20005;-77
2023/11/28 06:21:53;;;;;;;1.73;0.52;;;1.80;99.90;;;;;;6206845;23;20012;-77
2023/11/28 06:24:19;;;;;;;2.35;0.40;;;1.80;99.90;;;;;;6206260;23;20020;-77
2023/11/28 06:26:45;;;;;;;2.80;0.52;;;1.80;99.90;;;;;;6206337;23;20044;-76
2023/11/28 06:29:10;;;;;;;1.08;0.40;;;1.80;99.90;;;;;;6207142;23;20020;-76
2023/11/28 06:31:36;;;;;;;1.23;0.40;;;1.80;99.90;;;;;;6213374;23;20008;-76
2023/11/28 06:34:02;;;;;;;1.48;0.50;;;1.80;99.90;;;;;;6208376;23;20473;-75
2023/11/28 06:36:27;;;;;;;1.67;0.70;;;1.80;99.90;;;;;;6206499;23;20015;-76
2023/11/28 06:38:55;;;;;;;1.75;0.63;;;1.80;99.90;;;;;;6208433;23;20009;-77
2023/11/28 06:41:20;;;;;;;1.52;0.38;;;1.80;99.90;;;;;;6205366;23;21304;-76
2023/11/28 06:43:46;;;;;;;1.33;0.50;;;1.70;99.90;;;;;;6208021;23;20407;-77
2023/11/28 06:46:13;;;;;;;2.30;0.70;;;1.70;99.90;;;;;;6205351;23;20088;-76
2023/11/28 06:48:38;;;;;;;5.45;0.60;;;1.70;99.90;;;;;;6206366;23;20762;-77
2023/11/28 06:51:04;;;;;;;2.22;0.82;;;1.70;99.90;;;;;;6206635;23;20009;-76
2023/11/28 06:53:30;;;;;;;1.48;0.60;;;1.60;99.90;;;;;;6207755;23;20005;-76
2023/11/28 06:55:55;;;;;;;2.60;1.08;;;1.60;99.90;;;;;;6206184;23;20043;-77
2023/11/28 06:58:21;;;;;;;4.30;1.05;;;1.60;99.90;;;;;;6204199;23;20024;-76
2023/11/28 07:00:47;;;;;;;1.33;0.70;;;1.60;99.90;;;;;;6205782;23;20005;-76
2023/11/28 07:03:13;;;;;;;0.70;0.30;;;1.60;99.90;;;;;;6206322;23;20019;-75
2023/11/28 07:05:39;;;;;;;0.63;0.30;;;1.60;99.90;;;;;;6205692;23;20032;-76
2023/11/28 07:08:05;;;;;;;4.90;0.75;;;1.60;99.90;;;;;;6206766;23;20009;-76
2023/11/28 07:10:31;;;;;;;1.85;0.50;;;1.60;99.90;;;;;;6205844;23;20398;-75
2023/11/28 07:12:57;;;;;;;0.70;0.50;;;1.50;99.90;;;;;;6208235;23;20009;-76
2023/11/28 07:15:22;;;;;;;1.63;0.77;;;1.50;99.90;;;;;;6205049;23;20028;-76
2023/11/28 07:17:49;;;;;;;2.72;0.95;;;1.50;99.90;;;;;;6207593;23;20127;-76
2023/11/28 07:20:15;;;;;;;1.08;0.50;;;1.50;99.90;;;;;;6206602;23;20283;-76
2023/11/28 07:22:41;;;;;;;2.40;0.60;;;1.40;99.90;;;;;;6209189;23;20087;-76
2023/11/28 07:25:09;;;;;;;2.50;0.63;;;1.40;99.90;;;;;;6204982;23;20044;-76
2023/11/28 07:27:35;;;;;;;8.70;0.90;;;1.40;99.90;;;;;;6205501;23;20012;-76
2023/11/28 07:30:01;;;;;;;6.00;0.80;;;1.40;99.90;;;;;;6205696;23;20486;-76
2023/11/28 07:32:27;;;;;;;2.38;0.90;;;1.40;99.90;;;;;;6205186;23;20009;-77
2023/11/28 07:34:52;;;;;;;0.82;0.35;;;1.40;99.90;;;;;;6204896;23;20009;-76
2023/11/28 07:37:18;;;;;;;1.00;0.40;;;1.40;99.90;;;;;;6204478;22;20104;-76
2023/11/28 07:39:44;;;;;;;4.28;0.55;;;1.40;99.90;;;;;;6207457;23;20024;-76
2023/11/28 07:42:09;;;;;;;4.18;0.60;;;1.40;99.90;;;;;;6206421;23;20021;-75
2023/11/28 07:44:35;;;;;;;0.82;0.55;;;1.40;99.90;;;;;;6204969;23;20032;-77
2023/11/28 07:47:01;;;;;;;2.92;1.20;;;1.40;99.90;;;;;;6205254;23;20710;-76
2023/11/28 07:49:26;;;;;;;3.72;0.40;;;1.50;99.90;;;;;;6204866;23;20005;-76
2023/11/28 07:51:52;;;;;;;2.28;0.90;;;1.50;99.90;;;;;;6207349;23;20650;-76
2023/11/28 07:54:18;;;;;;;3.63;1.63;;;1.50;99.90;;;;;;6206489;23;20020;-76
2023/11/28 07:56:44;;;;;;;1.00;0.50;;;1.50;99.90;;;;;;6207593;23;20088;-76
2023/11/28 07:59:09;;;;;;;2.78;0.73;;;1.50;99.90;;;;;;6205742;23;20009;-77
2023/11/28 08:01:35;;;;;;;2.28;1.05;;;1.50;99.90;;;;;;6207229;23;20023;-76
2023/11/28 08:04:01;;;;;;;2.30;0.95;;;1.50;99.90;;;;;;6204928;23;20015;-75
2023/11/28 08:06:26;;;;;;;7.85;0.77;;;1.50;99.90;;;;;;6205247;23;20001;-76
2023/11/28 08:08:52;;;;;;;1.92;0.80;;;1.60;99.90;;;;;;6208702;23;20087;-75
2023/11/28 08:11:17;;;;;;;9.52;2.00;;;1.60;99.90;;;;;;6203118;23;20071;-75
2023/11/28 08:13:43;;;;;;;4.80;1.13;;;1.60;99.90;;;;;;6205425;23;20013;-77
2023/11/28 08:16:09;;;;;;;1.90;0.70;;;1.60;99.90;;;;;;6206022;23;20008;-76
2023/11/28 08:18:37;;;;;;;2.55;0.80;;;1.70;99.90;;;;;;6208112;23;20025;-76
2023/11/28 08:21:06;;;;;;;7.05;1.20;;;1.70;99.90;;;;;;6206264;23;20015;-76
2023/11/28 08:23:33;;;;;;;1.80;0.65;;;1.70;99.90;;;;;;6206218;23;20015;-76
2023/11/28 08:25:58;;;;;;;2.03;0.70;;;1.70;99.90;;;;;;6207008;23;20017;-76
2023/11/28 08:28:24;;;;;;;1.30;0.60;;;1.70;99.90;;;;;;6204530;23;20015;-76
2023/11/28 08:30:50;;;;;;;3.45;0.77;;;1.70;99.90;;;;;;6207409;23;20008;-76
2023/11/28 08:33:16;;;;;;;3.60;0.75;;;1.80;99.90;;;;;;6205791;23;19996;-75
2023/11/28 08:35:42;;;;;;;6.25;0.80;;;1.80;99.90;;;;;;6207400;23;20008;-78
2023/11/28 08:38:07;;;;;;;2.58;0.68;;;1.80;99.90;;;;;;6205556;23;20028;-76
2023/11/28 08:40:33;;;;;;;3.80;1.60;;;1.90;99.90;;;;;;6207160;23;20001;-75
2023/11/28 08:42:58;;;;;;;3.28;1.42;;;1.90;99.90;;;;;;6205043;23;20007;-76
2023/11/28 08:45:24;;;;;;;3.88;1.13;;;1.90;99.90;;;;;;6205705;23;20032;-76
2023/11/28 08:47:49;;;;;;;3.97;0.80;;;2.00;99.90;;;;;;6206555;23;20438;-76
2023/11/28 08:50:15;;;;;;;1.30;0.68;;;2.00;99.90;;;;;;6205685;23;20035;-76
2023/11/28 08:52:41;;;;;;;2.17;0.68;;;2.10;99.90;;;;;;6204924;23;20004;-76
2023/11/28 08:55:06;;;;;;;5.13;1.05;;;2.20;99.90;;;;;;6206096;23;20011;-77
2023/11/28 08:57:35;;;;;;;2.92;0.77;;;2.30;99.90;;;;;;6206603;23;20614;-76
2023/11/28 09:00:05;;;;;;;2.05;0.60;;;2.30;99.90;;;;;;6207858;23;20342;-76
2023/11/28 09:02:31;;;;;;;3.13;1.08;;;2.40;99.90;;;;;;6206849;23;20009;-77
2023/11/28 09:04:56;;;;;;;3.70;1.00;;;2.50;99.90;;;;;;6206653;23;20078;-76
2023/11/28 09:07:22;;;;;;;2.40;0.95;;;2.60;99.90;;;;;;6205340;23;20024;-76
2023/11/28 09:09:47;;;;;;;3.45;0.93;;;2.60;99.90;;;;;;6207869;23;20394;-76
2023/11/28 09:12:17;;;;;;;3.47;1.27;;;2.70;99.90;;;;;;6203876;23;20013;-77
2023/11/28 09:14:44;;;;;;;1.77;0.77;;;2.70;99.90;;;;;;6207972;23;20013;-77
2023/11/28 09:17:09;;;;;;;5.47;1.10;;;2.80;99.90;;;;;;6203528;23;20538;-77
2023/11/28 09:19:35;;;;;;;2.90;1.20;;;2.80;99.90;;;;;;6205439;23;20009;-76
2023/11/28 09:22:02;;;;;;;1.80;0.80;;;2.80;99.90;;;;;;6205109;23;20082;-76
2023/11/28 09:24:31;;;;;;;1.85;1.00;;;2.90;99.90;;;;;;6206322;23;20019;-77
2023/11/28 09:26:58;;;;;;;2.33;0.98;;;2.90;99.90;;;;;;6206870;23;20528;-77
2023/11/28 09:29:23;;;;;;;2.75;0.85;;;2.90;99.90;;;;;;6204455;23;20071;-76
2023/11/28 09:31:49;;;;;;;2.05;1.23;;;3.00;99.90;;;;;;6205156;23;20013;-76
2023/11/28 09:34:15;;;;;;;2.63;0.85;;;3.00;99.90;;;;;;6205710;23;20011;-77
2023/11/28 09:36:41;;;;;;;4.85;1.13;;;3.00;99.90;;;;;;6206855;23;20101;-76
2023/11/28 09:39:09;;;;;;;5.82;0.70;;;3.10;99.90;;;;;;6206037;23;20033;-77
2023/11/28 09:41:38;;;;;;;1.65;0.65;;;3.10;99.90;;;;;;6204926;23;20016;-76
2023/11/28 09:44:04;;;;;;;1.58;0.65;;;3.20;99.90;;;;;;6205410;23;20016;-74
2023/11/28 09:46:31;;;;;;;2.17;0.85;;;3.20;99.90;;;;;;6207096;23;20008;-76
2023/11/28 09:48:59;;;;;;;5.20;1.25;;;3.20;99.90;;;;;;6205417;23;20342;-77
2023/11/28 09:51:28;;;;;;;5.20;0.90;;;3.20;99.90;;;;;;6205403;23;20101;-76
2023/11/28 09:53:57;;;;;;;2.10;0.60;;;3.30;99.90;;;;;;6207313;23;20019;-77
2023/11/28 09:56:24;;;;;;;4.10;1.08;;;3.30;99.90;;;;;;6205441;23;20465;-76
2023/11/28 09:58:58;;;;;;;2.38;0.88;;;3.40;99.90;;;;;;6207840;23;20023;-76
2023/11/28 10:01:25;;;;;;;3.30;0.80;;;3.40;99.90;;;;;;6207922;23;20024;-77
2023/11/28 10:03:51;;;;;;;2.15;1.20;;;3.40;99.90;;;;;;6205685;23;20017;-76
2023/11/28 10:06:20;;;;;;;4.43;1.45;;;3.40;99.90;;;;;;6205478;23;20011;-77
2023/11/28 10:08:49;;;;;;;1.08;0.70;;;3.50;99.90;;;;;;6206460;23;20004;-76
2023/11/28 10:11:16;;;;;;;1.85;0.93;;;3.50;99.90;;;;;;6206922;23;20055;-76
2023/11/28 10:13:47;;;;;;;2.90;0.98;;;3.50;99.90;;;;;;6207496;23;20031;-77
2023/11/28 10:16:19;;;;;;;2.03;0.73;;;3.50;99.90;;;;;;6204421;23;20008;-78
2023/11/28 10:18:47;;;;;;;17.15;0.90;;;3.50;99.90;;;;;;6206315;23;20080;-76
2023/11/28 10:21:15;;;;;;;2.58;0.85;;;3.50;99.90;;;;;;6203885;23;20307;-76
2023/11/28 10:23:47;;;;;;;1.45;0.80;;;3.50;99.90;;;;;;6208087;23;20025;-75
2023/11/28 10:26:13;;;;;;;2.00;1.13;;;3.60;99.90;;;;;;6207013;23;20044;-77
2023/11/28 10:28:38;;;;;;;4.15;0.65;;;3.60;99.90;;;;;;6208713;23;20008;-77
2023/11/28 10:31:07;;;;;;;2.45;0.90;;;3.60;99.90;;;;;;6205489;23;20005;-76
2023/11/28 10:33:33;;;;;;;8.07;1.63;;;3.60;99.90;;;;;;6208498;23;20004;-77
2023/11/28 10:35:59;;;;;;;2.17;0.70;;;3.60;99.90;;;;;;6207304;23;20059;-77
2023/11/28 10:38:26;;;;;;;2.50;0.85;;;3.60;99.90;;;;;;6204970;23;20005;-76
2023/11/28 10:40:53;;;;;;;2.38;0.80;;;3.70;99.90;;;;;;6208916;23;20032;-76
2023/11/28 10:43:19;;;;;;;6.82;1.50;;;3.70;99.90;;;;;;6206630;23;20009;-77
2023/11/28 10:45:46;;;;;;;2.58;0.85;;;3.80;99.90;;;;;;6203331;23;20772;-76
2023/11/28 10:48:12;;;;;;;1.70;0.80;;;4.10;99.90;;;;;;6205582;23;20028;-76
2023/11/28 10:50:42;;;;;;;1.10;0.55;;;4.70;99.90;;;;;;6204206;23;20095;-78
2023/11/28 10:53:11;;;;;;;3.80;0.68;;;5.10;99.90;;;;;;6193890;23;20004;-77
2023/11/28 10:55:40;;;;;;;2.05;0.60;;;5.40;99.90;;;;;;6205680;23;20087;-77
2023/11/28 10:58:11;;;;;;;2.90;0.50;;;5.30;99.90;;;;;;6206831;23;20017;-77
2023/11/28 11:00:38;;;;;;;3.38;0.43;;;5.10;99.90;;;;;;6201972;23;20005;-76
2023/11/28 11:03:04;;;;;;;2.95;0.55;;;4.90;99.90;;;;;;6205566;23;20005;-78
2023/11/28 11:05:31;;;;;;;1.85;0.80;;;4.70;99.90;;;;;;6204973;23;20012;-76
2023/11/28 11:07:57;;;;;;;3.83;1.77;;;4.60;99.90;;;;;;6204823;23;20013;-78
2023/11/28 11:10:26;;;;;;;2.80;0.80;;;4.60;99.90;;;;;;6202044;23;20051;-78
2023/11/28 11:13:01;;;;;;;0.93;0.20;;;4.60;99.90;;;;;;6206128;23;20009;-78
2023/11/28 11:15:36;;;;;;;2.53;0.73;;;4.50;99.90;;;;;;6203935;23;20008;-77
2023/11/28 11:18:25;;;;;;;0.98;0.30;;;4.50;99.90;;;;;;6207103;23;20483;-76
2023/11/28 11:21:00;;;;;;;1.80;0.88;;;4.50;99.90;;;;;;6204664;23;20009;-76
2023/11/28 11:23:28;;;;;;;1.67;0.60;;;4.40;99.90;;;;;;6206119;23;20012;-77
2023/11/28 11:25:53;;;;;;;2.13;0.50;;;4.40;99.90;;;;;;6206766;23;20008;-77
2023/11/28 11:31:12;;;;;;;2.25;0.60;;;4.20;99.90;;;;;;6194280;22;20028;-71
2023/11/28 11:33:38;;;;;;;1.55;0.47;;;4.20;99.90;;;;;;6207174;22;20012;-76
2023/11/28 11:36:10;;;;;;;2.30;0.47;;;4.10;99.90;;;;;;6205533;22;20009;-72
2023/11/28 11:38:36;;;;;;;3.15;0.60;;;4.20;99.90;;;;;;6208482;22;20013;-73
2023/11/28 11:41:04;;;;;;;1.80;0.40;;;4.10;99.90;;;;;;6206573;23;20473;-77
2023/11/28 11:43:44;;;;;;;0.85;0.32;;;4.00;99.90;;;;;;6206764;23;20024;-75
2023/11/28 11:46:15;;;;;;;2.17;0.52;;;3.90;99.90;;;;;;6205209;23;20013;-74
2023/11/28 11:48:41;;;;;;;0.65;0.30;;;3.90;99.90;;;;;;6207199;23;20529;-75
2023/11/28 11:51:08;;;;;;;2.17;0.60;;;3.90;99.90;;;;;;6207813;23;20020;-75
2023/11/28 11:53:37;;;;;;;1.48;0.57;;;3.90;99.90;;;;;;6206546;23;20064;-75
2023/11/28 11:56:03;;;;;;;1.88;0.47;;;3.90;99.90;;;;;;6204733;23;20016;-76
2023/11/28 11:58:30;;;;;;;4.97;1.42;;;3.90;99.90;;;;;;6206319;23;20320;-79
2023/11/28 12:00:56;;;;;;;2.63;0.60;;;3.90;99.90;;;;;;6204308;23;19997;-74
2023/11/28 12:03:25;;;;;;;2.63;0.80;;;3.90;99.90;;;;;;6205139;23;20009;-75
2023/11/28 12:05:57;;;;;;;2.95;0.45;;;3.90;99.90;;;;;;6206115;23;20346;-77
2023/11/28 12:08:23;;;;;;;3.33;0.50;;;3.80;99.90;;;;;;6204799;23;22026;-74
2023/11/28 12:10:48;;;;;;;1.13;0.60;;;3.80;99.90;;;;;;6206426;23;20028;-74
2023/11/28 12:13:18;;;;;;;2.58;0.55;;;3.90;99.90;;;;;;6204605;23;20008;-74
2023/11/28 12:15:45;;;;;;;4.78;1.05;;;3.80;99.90;;;;;;6205892;23;20035;-75
2023/11/28 12:18:11;;;;;;;1.63;0.88;;;3.80;99.90;;;;;;6204616;23;20016;-76
2023/11/28 12:20:38;;;;;;;1.88;0.52;;;3.80;99.90;;;;;;6206164;23;20033;-72
2023/11/28 12:23:06;;;;;;;1.45;0.68;;;3.80;99.90;;;;;;6204101;23;20008;-75
2023/11/28 12:25:33;;;;;;;4.63;0.88;;;3.90;99.90;;;;;;6205459;23;20158;-75
2023/11/28 12:27:59;;;;;;;2.20;0.70;;;3.90;99.90;;;;;;6206314;23;20354;-73
2023/11/28 12:30:25;;;;;;;1.88;0.68;;;3.90;99.90;;;;;;6206306;23;20020;-77
2023/11/28 12:32:51;;;;;;;5.22;1.48;;;3.90;99.90;;;;;;6205926;23;20020;-74
2023/11/28 12:35:17;;;;;;;3.80;0.70;;;4.00;99.90;;;;;;6203886;23;20063;-75
2023/11/28 12:37:46;;;;;;;1.73;0.57;;;4.00;99.90;;;;;;6205428;23;20015;-76
2023/11/28 12:40:12;;;;;;;5.32;0.90;;;4.00;99.90;;;;;;6204472;23;20009;-74
2023/11/28 12:42:45;;;;;;;3.03;0.65;;;4.00;99.90;;;;;;6206267;23;20036;-75
2023/11/28 12:45:12;;;;;;;7.43;0.90;;;4.10;99.90;;;;;;6204141;23;20024;-76
2023/11/28 12:47:37;;;;;;;2.20;0.82;;;4.10;99.90;;;;;;6207971;23;20015;-75
2023/11/28 12:50:04;;;;;;;2.20;0.65;;;4.10;99.90;;;;;;6204846;23;20012;-75
2023/11/28 12:52:32;;;;;;;2.63;1.08;;;4.20;99.90;;;;;;6205860;23;20012;-71
2023/11/28 12:54:57;;;;;;;1.60;0.70;;;4.30;99.90;;;;;;6206326;23;20036;-74
2023/11/28 12:57:24;;;;;;;3.50;0.82;;;4.30;99.90;;;;;;6207615;23;20361;-75